Airfield :
LOGIN :

Register | Disclaimer

   EN    FR    IT 

 










Legend :    VFR   Marginal VFR   IFR   Intensive IFR   Very Intensive IFR
Visi :
Ceiling :
>= 8 km
>= 3000ft
5 to 8 km
1000 to 3000 ft
1500m to 5 km
500 to 1000 ft
800 to 1500m
200 to 500 ft
< 800m
< 200 ft
Symbols :   Thunderstorms  Fog  Heavy snow  Heavy precipitations  Wind > 20 kt
SIGMETs :     Misc.  Thunderstorms  Icing  Turbulence  Mountain Waves  Volcanic Ashes






- Airport Elevation : 1822 ft


ETSL - Lechfeld AB

CURRENT METAR :
  • 200750Z 23011KT 2500 SN FEW008 BKN013 01/M01 Q1022 BLACKYLO GRN TEMPO AMB

EXPIRED METARs :
  • 200720Z 23012KT 9999 FEW008 BKN013 00/M01 Q1022 BLACKGRN GRN TEMPO AMB
  • 200620Z 23013KT 8000 -SN BKN008 OVC020 00/M01 Q1022 BLACKGRN GRN TEMPO AMB
  • 200552Z 23010KT 6000 -SN BKN008 OVC020 00/M01 Q1022 BLACKGRN GRN TEMPO AMB
  • 200520Z 24010KT 5000 -SN BKN008 OVC020 00/M01 Q1022 GRN GRN TEMPO AMB

TAF TAF ETSL
Valid from the 20 at 06:00 until the 20 at 15:00 UTC


200515Z 2006/2015 23012KT 5000 -SN SCT005 BKN008
TEMPO 2006/2010 24015G25KT 1500 SN SCT002 BKN005
BECMG 2010/2012 25015G25KT 9999 NSW FEW010 BKN025
TEMPO 2012/2015 31020G30KT 2000 SHSN SCT008 BKN012TCU BY ETGL



MET'MAP, your aeronautical weather chart ! - Copyright ORBIFLY December 2007 - Disclaimer

ORBIFLY MET'MAP TEAM :

Programming & Development : Alexandra Zaïnal
Concept & original design : Baudouin d'Aumeries
Assistance for programming : Marc-Olivier Méhu
Technical & hardware support : Manuel Goepfert

Contact : metmap@orbifly.com




SOURCES & CREDITS :

   NOAA